Terminal Aerodrome Forecast
Issued by NWS Sterling, VA

Current Version | Previous Version | Graphics & Text | Print | Product List | Glossary On
Versions: 1 2 3 4 5 6 7 8 9 10 11 12 13 14 15 16 17 18 19 20 21 22 23
408
FTUS41 KLWX 090844 AAA
TAFIAD
TAF AMD
KIAD 090844Z 0909/1012 13005KT P6SM -RA OVC010
     FM091100 VRB04KT 1SM -SN OVC007
     FM091700 33006KT 3SM -SHSN OVC025
     FM092200 29007KT P6SM OVC050=

USA.gov is the U.S. government's official web portal to all federal, state and local government web resources and services.